sensor_id;sensor_type;location;lat;lon;timestamp;pressure;altitude;pressure_sealevel;temperature;humidity
49423;BME280;36998;51.974;20.150;2022-11-09T00:01:35;100049.81;;;10.08;70.04
49423;BME280;36998;51.974;20.150;2022-11-09T00:04:03;100056.22;;;10.07;70.34
49423;BME280;36998;51.974;20.150;2022-11-09T00:06:30;100048.81;;;10.09;70.03
49423;BME280;36998;51.974;20.150;2022-11-09T00:08:56;100045.25;;;10.08;69.95
49423;BME280;36998;51.974;20.150;2022-11-09T00:11:22;100052.53;;;10.08;69.70
49423;BME280;36998;51.974;20.150;2022-11-09T00:13:47;100048.13;;;10.07;70.05
49423;BME280;36998;51.974;20.150;2022-11-09T00:16:15;100046.63;;;10.04;70.23
49423;BME280;36998;51.974;20.150;2022-11-09T00:18:41;100051.00;;;10.05;70.01
49423;BME280;36998;51.974;20.150;2022-11-09T00:21:19;100045.59;;;10.05;70.00
49423;BME280;36998;51.974;20.150;2022-11-09T00:23:46;100055.53;;;10.05;69.61
49423;BME280;36998;51.974;20.150;2022-11-09T00:26:13;100048.81;;;10.01;69.71
49423;BME280;36998;51.974;20.150;2022-11-09T00:28:40;100049.31;;;10.04;69.85
49423;BME280;36998;51.974;20.150;2022-11-09T00:31:17;100056.72;;;10.02;70.05
49423;BME280;36998;51.974;20.150;2022-11-09T00:33:52;100055.53;;;10.05;69.84
49423;BME280;36998;51.974;20.150;2022-11-09T00:36:19;100051.31;;;10.02;70.11
49423;BME280;36998;51.974;20.150;2022-11-09T00:39:02;100045.91;;;10.02;69.75
49423;BME280;36998;51.974;20.150;2022-11-09T00:41:31;100045.09;;;10.02;69.59
49423;BME280;36998;51.974;20.150;2022-11-09T00:43:56;100049.78;;;10.00;69.80
49423;BME280;36998;51.974;20.150;2022-11-09T00:46:22;100041.69;;;10.00;69.97
49423;BME280;36998;51.974;20.150;2022-11-09T00:48:49;100051.00;;;9.97;69.90
49423;BME280;36998;51.974;20.150;2022-11-09T00:51:15;100045.59;;;9.97;69.77
49423;BME280;36998;51.974;20.150;2022-11-09T00:53:41;100041.19;;;9.96;69.85
49423;BME280;36998;51.974;20.150;2022-11-09T00:56:13;100047.75;;;9.94;69.87
49423;BME280;36998;51.974;20.150;2022-11-09T00:58:39;100049.94;;;9.90;70.00
49423;BME280;36998;51.974;20.150;2022-11-09T01:01:16;100048.25;;;9.89;70.23
49423;BME280;36998;51.974;20.150;2022-11-09T01:03:45;100057.69;;;9.85;70.04
49423;BME280;36998;51.974;20.150;2022-11-09T01:06:16;100054.16;;;9.84;70.19
49423;BME280;36998;51.974;20.150;2022-11-09T01:08:43;100048.25;;;9.81;70.13
49423;BME280;36998;51.974;20.150;2022-11-09T01:11:09;100049.41;;;9.78;70.29
49423;BME280;36998;51.974;20.150;2022-11-09T01:13:36;100053.09;;;9.77;70.46
49423;BME280;36998;51.974;20.150;2022-11-09T01:16:08;100048.91;;;9.75;70.59
49423;BME280;36998;51.974;20.150;2022-11-09T01:18:35;100047.03;;;9.75;70.67
49423;BME280;36998;51.974;20.150;2022-11-09T01:21:03;100053.59;;;9.73;70.70
49423;BME280;36998;51.974;20.150;2022-11-09T01:23:30;100043.66;;;9.73;70.63
49423;BME280;36998;51.974;20.150;2022-11-09T01:25:58;100043.84;;;9.72;70.27
49423;BME280;36998;51.974;20.150;2022-11-09T01:28:29;100040.13;;;9.73;70.57
49423;BME280;36998;51.974;20.150;2022-11-09T01:30:54;100039.28;;;9.72;70.46
49423;BME280;36998;51.974;20.150;2022-11-09T01:33:20;100042.13;;;9.71;70.47
49423;BME280;36998;51.974;20.150;2022-11-09T01:35:45;100044.16;;;9.69;70.89
49423;BME280;36998;51.974;20.150;2022-11-09T01:38:11;100037.94;;;9.68;70.88
49423;BME280;36998;51.974;20.150;2022-11-09T01:40:39;100048.72;;;9.68;70.78
49423;BME280;36998;51.974;20.150;2022-11-09T01:43:13;100034.72;;;9.65;70.52
49423;BME280;36998;51.974;20.150;2022-11-09T01:45:40;100042.44;;;9.68;70.79
49423;BME280;36998;51.974;20.150;2022-11-09T01:48:52;100028.97;;;9.68;70.79
49423;BME280;36998;51.974;20.150;2022-11-09T01:51:36;100029.97;;;9.67;70.84
49423;BME280;36998;51.974;20.150;2022-11-09T01:54:09;100029.97;;;9.67;71.03
49423;BME280;36998;51.974;20.150;2022-11-09T01:56:36;100027.97;;;9.69;71.18
49423;BME280;36998;51.974;20.150;2022-11-09T01:59:06;100014.31;;;9.70;71.13
49423;BME280;36998;51.974;20.150;2022-11-09T02:01:33;100006.06;;;9.72;71.08
49423;BME280;36998;51.974;20.150;2022-11-09T02:06:35;100016.34;;;9.76;70.83
49423;BME280;36998;51.974;20.150;2022-11-09T02:09:06;100019.75;;;9.78;71.01
49423;BME280;36998;51.974;20.150;2022-11-09T02:11:35;100020.59;;;9.79;70.68
49423;BME280;36998;51.974;20.150;2022-11-09T02:14:02;100008.97;;;9.78;70.66
49423;BME280;36998;51.974;20.150;2022-11-09T02:16:28;100015.50;;;9.76;70.56
49423;BME280;36998;51.974;20.150;2022-11-09T02:18:56;100017.06;;;9.78;70.60
49423;BME280;36998;51.974;20.150;2022-11-09T02:21:25;100019.75;;;9.78;70.75
49423;BME280;36998;51.974;20.150;2022-11-09T02:23:53;100011.66;;;9.78;70.30
49423;BME280;36998;51.974;20.150;2022-11-09T02:26:43;100017.06;;;9.78;70.41
49423;BME280;36998;51.974;20.150;2022-11-09T02:29:12;100015.50;;;9.76;70.71
49423;BME280;36998;51.974;20.150;2022-11-09T02:31:43;100014.69;;;9.75;70.70
49423;BME280;36998;51.974;20.150;2022-11-09T02:34:14;100006.91;;;9.72;70.51
49423;BME280;36998;51.974;20.150;2022-11-09T02:36:41;100011.63;;;9.70;71.05
49423;BME280;36998;51.974;20.150;2022-11-09T02:39:13;100016.50;;;9.67;70.80
49423;BME280;36998;51.974;20.150;2022-11-09T02:41:47;100013.28;;;9.63;70.86
49423;BME280;36998;51.974;20.150;2022-11-09T02:44:16;100014.44;;;9.60;70.98
49423;BME280;36998;51.974;20.150;2022-11-09T02:46:42;100016.31;;;9.60;71.06
49423;BME280;36998;51.974;20.150;2022-11-09T02:49:09;100021.00;;;9.58;71.24
49423;BME280;36998;51.974;20.150;2022-11-09T02:51:35;100019.34;;;9.57;70.97
49423;BME280;36998;51.974;20.150;2022-11-09T02:54:00;100018.50;;;9.56;71.42
49423;BME280;36998;51.974;20.150;2022-11-09T02:56:26;100015.97;;;9.55;70.94
49423;BME280;36998;51.974;20.150;2022-11-09T02:58:53;100007.34;;;9.51;71.25
49423;BME280;36998;51.974;20.150;2022-11-09T03:01:19;100020.16;;;9.49;71.14
49423;BME280;36998;51.974;20.150;2022-11-09T03:03:44;100019.47;;;9.47;71.09
49423;BME280;36998;51.974;20.150;2022-11-09T03:06:11;100016.09;;;9.45;71.42
49423;BME280;36998;51.974;20.150;2022-11-09T03:08:37;100034.28;;;9.43;71.19
49423;BME280;36998;51.974;20.150;2022-11-09T03:11:02;100034.28;;;9.43;71.73
49423;BME280;36998;51.974;20.150;2022-11-09T03:13:32;100038.13;;;9.41;71.86
49423;BME280;36998;51.974;20.150;2022-11-09T03:16:02;100033.75;;;9.40;71.60
49423;BME280;36998;51.974;20.150;2022-11-09T03:18:28;100038.47;;;9.37;71.97
49423;BME280;36998;51.974;20.150;2022-11-09T03:20:53;100035.25;;;9.34;72.02
49423;BME280;36998;51.974;20.150;2022-11-09T03:23:19;100035.25;;;9.34;71.57
49423;BME280;36998;51.974;20.150;2022-11-09T03:25:44;100028.50;;;9.30;71.76
49423;BME280;36998;51.974;20.150;2022-11-09T03:28:10;100025.94;;;9.28;72.01
49423;BME280;36998;51.974;20.150;2022-11-09T03:30:37;100025.28;;;9.26;71.85
49423;BME280;36998;51.974;20.150;2022-11-09T03:33:04;100025.44;;;9.25;71.63
49423;BME280;36998;51.974;20.150;2022-11-09T03:35:35;100021.06;;;9.24;71.67
49423;BME280;36998;51.974;20.150;2022-11-09T03:38:02;100024.59;;;9.24;72.03
49423;BME280;36998;51.974;20.150;2022-11-09T03:40:29;100018.19;;;9.25;72.16
49423;BME280;36998;51.974;20.150;2022-11-09T03:42:54;100022.72;;;9.25;71.66
49423;BME280;36998;51.974;20.150;2022-11-09T03:45:21;100018.03;;;9.27;71.90
49423;BME280;36998;51.974;20.150;2022-11-09T03:47:47;100017.03;;;9.28;72.03
49423;BME280;36998;51.974;20.150;2022-11-09T03:50:14;100021.75;;;9.26;71.84
49423;BME280;36998;51.974;20.150;2022-11-09T03:52:43;100010.97;;;9.26;72.16
49423;BME280;36998;51.974;20.150;2022-11-09T03:55:09;100017.84;;;9.28;72.13
49423;BME280;36998;51.974;20.150;2022-11-09T03:57:35;100012.66;;;9.27;71.73
49423;BME280;36998;51.974;20.150;2022-11-09T04:00:00;100002.00;;;9.25;72.05
49423;BME280;36998;51.974;20.150;2022-11-09T04:02:26;100002.00;;;9.25;72.24
49423;BME280;36998;51.974;20.150;2022-11-09T04:04:51;100003.72;;;9.26;72.15
49423;BME280;36998;51.974;20.150;2022-11-09T04:07:17;100005.91;;;9.23;72.15
49423;BME280;36998;51.974;20.150;2022-11-09T04:09:42;100000.50;;;9.23;72.21
49423;BME280;36998;51.974;20.150;2022-11-09T04:12:08;99986.34;;;9.21;72.13
49423;BME280;36998;51.974;20.150;2022-11-09T04:14:33;99993.72;;;9.19;72.01
49423;BME280;36998;51.974;20.150;2022-11-09T04:16:59;99990.50;;;9.15;72.15
49423;BME280;36998;51.974;20.150;2022-11-09T04:19:24;99993.72;;;9.10;72.39
49423;BME280;36998;51.974;20.150;2022-11-09T04:21:50;99983.78;;;9.11;72.28
49423;BME280;36998;51.974;20.150;2022-11-09T04:24:16;99984.94;;;9.08;72.67
49423;BME280;36998;51.974;20.150;2022-11-09T04:26:41;99990.50;;;9.07;72.53
49423;BME280;36998;51.974;20.150;2022-11-09T04:29:06;100003.25;;;9.05;72.35
49423;BME280;36998;51.974;20.150;2022-11-09T04:31:32;99993.81;;;9.01;72.42
49423;BME280;36998;51.974;20.150;2022-11-09T04:33:58;99999.53;;;8.98;72.98
49423;BME280;36998;51.974;20.150;2022-11-09T04:36:23;99991.31;;;8.99;73.01
49423;BME280;36998;51.974;20.150;2022-11-09T04:38:49;99992.28;;;8.98;72.77
49423;BME280;36998;51.974;20.150;2022-11-09T04:41:14;99982.53;;;8.97;72.71
49423;BME280;36998;51.974;20.150;2022-11-09T04:43:40;99993.44;;;8.96;72.90
49423;BME280;36998;51.974;20.150;2022-11-09T04:46:06;99992.59;;;8.95;72.70
49423;BME280;36998;51.974;20.150;2022-11-09T04:48:31;99993.75;;;8.93;73.07
49423;BME280;36998;51.974;20.150;2022-11-09T04:50:58;99998.47;;;8.90;72.90
49423;BME280;36998;51.974;20.150;2022-11-09T04:53:24;99992.94;;;8.92;73.13
49423;BME280;36998;51.974;20.150;2022-11-09T04:55:50;99995.94;;;8.89;73.21
49423;BME280;36998;51.974;20.150;2022-11-09T04:58:15;99990.56;;;8.89;72.92
49423;BME280;36998;51.974;20.150;2022-11-09T05:00:41;99988.03;;;8.87;72.97
49423;BME280;36998;51.974;20.150;2022-11-09T05:03:06;99976.41;;;8.87;73.20
49423;BME280;36998;51.974;20.150;2022-11-09T05:05:36;99980.09;;;8.86;73.43
49423;BME280;36998;51.974;20.150;2022-11-09T05:08:02;99982.22;;;9.00;72.51
49423;BME280;36998;51.974;20.150;2022-11-09T05:10:28;99988.16;;;8.86;73.00
49423;BME280;36998;51.974;20.150;2022-11-09T05:13:12;99983.81;;;8.85;73.25
49423;BME280;36998;51.974;20.150;2022-11-09T05:15:39;99985.81;;;8.83;73.31
49423;BME280;36998;51.974;20.150;2022-11-09T05:18:05;99985.81;;;8.83;73.37
49423;BME280;36998;51.974;20.150;2022-11-09T05:20:31;99997.25;;;8.85;73.03
49423;BME280;36998;51.974;20.150;2022-11-09T05:22:57;99989.50;;;8.82;72.87
49423;BME280;36998;51.974;20.150;2022-11-09T05:25:42;99987.81;;;8.81;73.23
49423;BME280;36998;51.974;20.150;2022-11-09T05:28:07;99991.53;;;8.80;72.92
49423;BME280;36998;51.974;20.150;2022-11-09T05:30:33;99990.66;;;8.79;72.82
49423;BME280;36998;51.974;20.150;2022-11-09T05:32:58;99979.88;;;8.79;73.02
49423;BME280;36998;51.974;20.150;2022-11-09T05:35:24;99979.75;;;8.81;72.77
49423;BME280;36998;51.974;20.150;2022-11-09T05:37:50;99992.19;;;8.82;72.77
49423;BME280;36998;51.974;20.150;2022-11-09T05:40:16;99986.16;;;8.80;73.13
49423;BME280;36998;51.974;20.150;2022-11-09T05:42:42;99996.59;;;8.83;72.91
49423;BME280;36998;51.974;20.150;2022-11-09T05:45:10;99992.06;;;8.83;73.12
49423;BME280;36998;51.974;20.150;2022-11-09T05:47:40;99993.22;;;8.81;73.05
49423;BME280;36998;51.974;20.150;2022-11-09T05:50:08;99991.53;;;8.80;72.69
49423;BME280;36998;51.974;20.150;2022-11-09T05:52:34;100002.97;;;8.82;73.12
49423;BME280;36998;51.974;20.150;2022-11-09T05:55:00;99996.75;;;8.81;73.15
49423;BME280;36998;51.974;20.150;2022-11-09T05:57:26;100003.97;;;8.81;72.96
49423;BME280;36998;51.974;20.150;2022-11-09T05:59:51;99997.44;;;8.83;72.94
49423;BME280;36998;51.974;20.150;2022-11-09T06:02:17;100009.06;;;8.84;72.79
49423;BME280;36998;51.974;20.150;2022-11-09T06:04:42;100009.72;;;8.86;72.62
49423;BME280;36998;51.974;20.150;2022-11-09T06:07:08;100002.34;;;8.88;72.63
49423;BME280;36998;51.974;20.150;2022-11-09T06:09:33;100004.72;;;8.91;72.96
49423;BME280;36998;51.974;20.150;2022-11-09T06:11:59;100007.94;;;8.95;72.80
49423;BME280;36998;51.974;20.150;2022-11-09T06:14:24;100006.59;;;8.99;72.71
49423;BME280;36998;51.974;20.150;2022-11-09T06:16:50;100003.59;;;9.02;72.97
49423;BME280;36998;51.974;20.150;2022-11-09T06:19:15;100004.63;;;9.09;72.84
49423;BME280;36998;51.974;20.150;2022-11-09T06:21:41;100005.84;;;9.14;72.55
49423;BME280;36998;51.974;20.150;2022-11-09T06:24:06;99996.97;;;9.22;72.66
49423;BME280;36998;51.974;20.150;2022-11-09T06:26:32;100004.38;;;9.28;72.35
49423;BME280;36998;51.974;20.150;2022-11-09T06:28:57;100000.06;;;9.35;72.62
49423;BME280;36998;51.974;20.150;2022-11-09T06:31:24;99994.88;;;9.42;72.54
49423;BME280;36998;51.974;20.150;2022-11-09T06:33:49;100005.97;;;9.47;72.10
49423;BME280;36998;51.974;20.150;2022-11-09T06:36:15;99999.78;;;9.55;72.09
49423;BME280;36998;51.974;20.150;2022-11-09T06:38:40;99999.97;;;9.61;72.09
49423;BME280;36998;51.974;20.150;2022-11-09T06:41:06;100001.34;;;9.66;71.76
49423;BME280;36998;51.974;20.150;2022-11-09T06:43:31;100012.47;;;9.71;71.97
49423;BME280;36998;51.974;20.150;2022-11-09T06:45:57;100013.34;;;9.79;71.46
49423;BME280;36998;51.974;20.150;2022-11-09T06:48:23;100001.69;;;9.87;71.30
49423;BME280;36998;51.974;20.150;2022-11-09T06:50:48;100002.56;;;9.96;71.18
49423;BME280;36998;51.974;20.150;2022-11-09T06:53:15;99990.28;;;10.01;71.19
49423;BME280;36998;51.974;20.150;2022-11-09T06:55:41;99981.00;;;10.12;71.32
49423;BME280;36998;51.974;20.150;2022-11-09T06:58:10;99984.22;;;10.16;70.64
49423;BME280;36998;51.974;20.150;2022-11-09T07:00:36;99988.47;;;10.26;70.97
49423;BME280;36998;51.974;20.150;2022-11-09T07:03:02;99994.03;;;10.33;70.25
49423;BME280;36998;51.974;20.150;2022-11-09T07:05:28;99998.59;;;10.41;70.49
49423;BME280;36998;51.974;20.150;2022-11-09T07:07:53;99994.38;;;10.46;70.38
49423;BME280;36998;51.974;20.150;2022-11-09T07:10:18;99996.88;;;10.56;69.91
49423;BME280;36998;51.974;20.150;2022-11-09T07:12:44;99988.09;;;10.62;69.61
49423;BME280;36998;51.974;20.150;2022-11-09T07:15:11;99989.47;;;10.66;69.93
49423;BME280;36998;51.974;20.150;2022-11-09T07:17:37;99998.56;;;10.73;69.17
49423;BME280;36998;51.974;20.150;2022-11-09T07:20:05;99989.78;;;10.80;69.27
49423;BME280;36998;51.974;20.150;2022-11-09T07:22:31;99998.19;;;10.85;68.94
49423;BME280;36998;51.974;20.150;2022-11-09T07:24:59;99998.34;;;10.91;68.90
49423;BME280;36998;51.974;20.150;2022-11-09T07:27:25;100006.44;;;10.99;68.92
49423;BME280;36998;51.974;20.150;2022-11-09T07:29:50;100007.94;;;11.10;68.71
49423;BME280;36998;51.974;20.150;2022-11-09T07:32:16;100018.34;;;11.21;68.23
49423;BME280;36998;51.974;20.150;2022-11-09T07:34:41;100011.25;;;11.29;67.89
49423;BME280;36998;51.974;20.150;2022-11-09T07:37:07;100011.41;;;11.35;67.82
49423;BME280;36998;51.974;20.150;2022-11-09T07:39:32;100008.16;;;11.40;67.90
49423;BME280;36998;51.974;20.150;2022-11-09T07:41:58;100009.63;;;11.51;67.38
49423;BME280;36998;51.974;20.150;2022-11-09T07:44:25;100011.47;;;11.58;67.62
49423;BME280;36998;51.974;20.150;2022-11-09T07:46:51;100002.78;;;11.71;67.31
49423;BME280;36998;51.974;20.150;2022-11-09T07:49:16;100004.22;;;11.90;66.87
49423;BME280;36998;51.974;20.150;2022-11-09T07:51:42;99999.72;;;12.05;66.49
49423;BME280;36998;51.974;20.150;2022-11-09T07:54:08;100003.22;;;12.14;66.25
49423;BME280;36998;51.974;20.150;2022-11-09T07:56:35;100002.63;;;12.27;65.73
49423;BME280;36998;51.974;20.150;2022-11-09T07:59:01;99998.78;;;12.36;65.62
49423;BME280;36998;51.974;20.150;2022-11-09T08:01:26;99997.34;;;12.48;65.17
49423;BME280;36998;51.974;20.150;2022-11-09T08:03:53;99989.06;;;12.50;64.90
49423;BME280;36998;51.974;20.150;2022-11-09T08:06:19;99987.34;;;12.49;65.07
49423;BME280;36998;51.974;20.150;2022-11-09T08:08:44;99994.94;;;12.53;64.69
49423;BME280;36998;51.974;20.150;2022-11-09T08:11:10;99977.97;;;12.59;64.72
49423;BME280;36998;51.974;20.150;2022-11-09T08:13:36;99985.72;;;12.62;64.47
49423;BME280;36998;51.974;20.150;2022-11-09T08:16:01;99981.78;;;12.65;64.61
49423;BME280;36998;51.974;20.150;2022-11-09T08:18:27;99980.22;;;12.71;64.26
49423;BME280;36998;51.974;20.150;2022-11-09T08:20:53;99976.28;;;12.73;63.76
49423;BME280;36998;51.974;20.150;2022-11-09T08:23:19;99977.03;;;12.67;64.00
49423;BME280;36998;51.974;20.150;2022-11-09T08:25:49;99979.19;;;12.72;63.67
49423;BME280;36998;51.974;20.150;2022-11-09T08:28:15;99973.22;;;12.76;63.82
49423;BME280;36998;51.974;20.150;2022-11-09T08:30:45;99978.28;;;12.79;63.53
49423;BME280;36998;51.974;20.150;2022-11-09T08:33:11;99971.66;;;12.82;63.40
49423;BME280;36998;51.974;20.150;2022-11-09T08:35:37;99984.06;;;12.91;63.56
49423;BME280;36998;51.974;20.150;2022-11-09T08:38:04;99977.72;;;12.99;63.16
49423;BME280;36998;51.974;20.150;2022-11-09T08:40:31;99986.97;;;13.04;63.00
49423;BME280;36998;51.974;20.150;2022-11-09T08:43:02;99985.84;;;13.13;62.56
49423;BME280;36998;51.974;20.150;2022-11-09T08:45:31;99990.53;;;13.20;62.33
49423;BME280;36998;51.974;20.150;2022-11-09T08:47:58;99986.16;;;13.33;62.15
49423;BME280;36998;51.974;20.150;2022-11-09T08:50:25;99996.72;;;13.43;61.98
49423;BME280;36998;51.974;20.150;2022-11-09T08:52:51;100005.88;;;13.42;62.44
49423;BME280;36998;51.974;20.150;2022-11-09T08:55:16;99995.31;;;13.47;61.51
49423;BME280;36998;51.974;20.150;2022-11-09T08:57:42;99994.28;;;13.48;61.71
49423;BME280;36998;51.974;20.150;2022-11-09T09:00:07;99991.00;;;13.53;61.51
49423;BME280;36998;51.974;20.150;2022-11-09T09:02:33;99989.13;;;13.53;61.44
49423;BME280;36998;51.974;20.150;2022-11-09T09:04:58;99998.66;;;13.64;61.13
49423;BME280;36998;51.974;20.150;2022-11-09T09:07:24;99993.94;;;13.73;61.12
49423;BME280;36998;51.974;20.150;2022-11-09T09:09:49;100001.16;;;13.80;61.13
49423;BME280;36998;51.974;20.150;2022-11-09T09:12:15;100002.63;;;13.83;60.92
49423;BME280;36998;51.974;20.150;2022-11-09T09:14:40;100002.72;;;13.90;61.06
49423;BME280;36998;51.974;20.150;2022-11-09T09:17:06;99996.88;;;13.93;60.63
49423;BME280;36998;51.974;20.150;2022-11-09T09:19:31;100002.38;;;13.99;60.90
49423;BME280;36998;51.974;20.150;2022-11-09T09:21:57;100003.78;;;14.10;60.41
49423;BME280;36998;51.974;20.150;2022-11-09T09:24:23;100000.91;;;14.18;60.18
49423;BME280;36998;51.974;20.150;2022-11-09T09:26:49;99989.28;;;14.24;60.03
49423;BME280;36998;51.974;20.150;2022-11-09T09:29:14;100000.66;;;14.13;60.14
49423;BME280;36998;51.974;20.150;2022-11-09T09:31:40;99996.38;;;14.04;60.07
49423;BME280;36998;51.974;20.150;2022-11-09T09:34:06;99996.94;;;13.99;60.43
49423;BME280;36998;51.974;20.150;2022-11-09T09:36:31;99994.72;;;14.03;60.67
49423;BME280;36998;51.974;20.150;2022-11-09T09:38:57;100006.22;;;14.05;60.31
49423;BME280;36998;51.974;20.150;2022-11-09T09:44:01;100000.47;;;14.15;60.35
49423;BME280;36998;51.974;20.150;2022-11-09T09:46:44;99993.22;;;14.22;60.21
49423;BME280;36998;51.974;20.150;2022-11-09T09:49:15;99992.31;;;14.36;59.82
49423;BME280;36998;51.974;20.150;2022-11-09T09:51:47;99989.66;;;14.21;60.38
49423;BME280;36998;51.974;20.150;2022-11-09T09:54:18;99972.34;;;14.22;60.52
49423;BME280;36998;51.974;20.150;2022-11-09T09:56:46;99985.66;;;14.39;60.21
49423;BME280;36998;51.974;20.150;2022-11-09T09:59:26;99974.84;;;14.45;59.96
49423;BME280;36998;51.974;20.150;2022-11-09T10:01:55;99981.25;;;14.59;59.67
49423;BME280;36998;51.974;20.150;2022-11-09T10:07:23;99971.78;;;14.77;59.47
49423;BME280;36998;51.974;20.150;2022-11-09T10:10:15;99974.56;;;14.90;59.16
49423;BME280;36998;51.974;20.150;2022-11-09T10:15:43;99985.41;;;15.11;58.55
49423;BME280;36998;51.974;20.150;2022-11-09T10:26:43;99970.88;;;15.39;57.35
49423;BME280;36998;51.974;20.150;2022-11-09T10:29:31;99986.41;;;15.45;57.31
49423;BME280;36998;51.974;20.150;2022-11-09T10:32:08;99979.75;;;15.54;56.88
49423;BME280;36998;51.974;20.150;2022-11-09T10:34:54;99966.34;;;15.59;56.70
49423;BME280;36998;51.974;20.150;2022-11-09T10:37:29;99981.66;;;15.60;56.84
49423;BME280;36998;51.974;20.150;2022-11-09T10:42:59;99974.47;;;15.94;56.25
49423;BME280;36998;51.974;20.150;2022-11-09T10:45:44;99969.03;;;16.01;55.93
49423;BME280;36998;51.974;20.150;2022-11-09T10:48:37;99965.25;;;16.08;55.54
49423;BME280;36998;51.974;20.150;2022-11-09T10:51:42;99966.31;;;16.14;55.53
49423;BME280;36998;51.974;20.150;2022-11-09T10:54:31;99952.31;;;16.37;54.94
49423;BME280;36998;51.974;20.150;2022-11-09T10:57:22;99955.66;;;16.39;54.83
49423;BME280;36998;51.974;20.150;2022-11-09T11:00:16;99957.34;;;16.40;54.52
49423;BME280;36998;51.974;20.150;2022-11-09T11:03:15;99953.97;;;16.45;54.38
49423;BME280;36998;51.974;20.150;2022-11-09T11:06:03;99953.56;;;16.34;54.03
49423;BME280;36998;51.974;20.150;2022-11-09T11:11:40;99957.97;;;16.42;54.15
49423;BME280;36998;51.974;20.150;2022-11-09T11:14:32;99956.91;;;16.50;53.80
49423;BME280;36998;51.974;20.150;2022-11-09T11:17:28;99967.00;;;16.49;53.90
49423;BME280;36998;51.974;20.150;2022-11-09T11:20:32;99962.59;;;16.55;53.85
49423;BME280;36998;51.974;20.150;2022-11-09T11:23:19;99966.75;;;16.71;53.38
49423;BME280;36998;51.974;20.150;2022-11-09T11:26:22;99968.19;;;17.06;53.28
49423;BME280;36998;51.974;20.150;2022-11-09T11:29:21;99978.59;;;17.49;52.58
49423;BME280;36998;51.974;20.150;2022-11-09T11:32:15;99982.31;;;18.07;51.38
49423;BME280;36998;51.974;20.150;2022-11-09T11:35:02;99972.97;;;18.21;50.96
49423;BME280;36998;51.974;20.150;2022-11-09T11:37:57;99977.78;;;18.51;50.66
49423;BME280;36998;51.974;20.150;2022-11-09T11:41:19;99978.50;;;19.14;49.63
49423;BME280;36998;51.974;20.150;2022-11-09T11:44:23;99970.31;;;20.00;47.86
49423;BME280;36998;51.974;20.150;2022-11-09T11:50:52;99960.09;;;20.96;45.37
49423;BME280;36998;51.974;20.150;2022-11-09T11:53:46;99957.81;;;21.28;44.55
49423;BME280;36998;51.974;20.150;2022-11-09T12:00:18;99942.91;;;22.50;41.64
49423;BME280;36998;51.974;20.150;2022-11-09T12:09:06;99954.28;;;21.16;43.21
49423;BME280;36998;51.974;20.150;2022-11-09T12:12:13;99959.69;;;20.45;43.97
49423;BME280;36998;51.974;20.150;2022-11-09T12:15:03;99953.50;;;19.96;44.94
49423;BME280;36998;51.974;20.150;2022-11-09T12:22:05;99969.44;;;18.70;47.29
49423;BME280;36998;51.974;20.150;2022-11-09T12:24:38;99963.72;;;18.22;48.36
49423;BME280;36998;51.974;20.150;2022-11-09T12:27:57;99952.59;;;17.85;48.98
49423;BME280;36998;51.974;20.150;2022-11-09T12:30:57;99958.63;;;17.49;49.88
49423;BME280;36998;51.974;20.150;2022-11-09T12:36:37;99953.53;;;17.07;51.06
49423;BME280;36998;51.974;20.150;2022-11-09T12:39:30;99957.31;;;16.93;51.33
49423;BME280;36998;51.974;20.150;2022-11-09T12:42:22;99965.09;;;16.83;51.93
49423;BME280;36998;51.974;20.150;2022-11-09T12:48:08;99965.31;;;16.68;52.57
49423;BME280;36998;51.974;20.150;2022-11-09T12:50:57;99960.28;;;16.72;52.72
49423;BME280;36998;51.974;20.150;2022-11-09T12:53:41;99965.09;;;16.70;52.81
49423;BME280;36998;51.974;20.150;2022-11-09T12:56:30;99962.78;;;16.67;52.75
49423;BME280;36998;51.974;20.150;2022-11-09T13:02:20;99947.06;;;16.55;53.01
49423;BME280;36998;51.974;20.150;2022-11-09T13:05:26;99951.47;;;16.43;53.37
49423;BME280;36998;51.974;20.150;2022-11-09T13:08:26;99947.50;;;16.32;53.92
49423;BME280;36998;51.974;20.150;2022-11-09T13:11:21;99944.75;;;16.26;54.19
49423;BME280;36998;51.974;20.150;2022-11-09T13:23:25;99948.09;;;16.28;54.42
49423;BME280;36998;51.974;20.150;2022-11-09T13:35:00;99953.34;;;16.23;54.29
49423;BME280;36998;51.974;20.150;2022-11-09T13:37:53;99950.63;;;16.09;54.58
49423;BME280;36998;51.974;20.150;2022-11-09T13:40:38;99953.09;;;15.98;54.72
49423;BME280;36998;51.974;20.150;2022-11-09T13:43:31;99951.00;;;15.86;54.85
49423;BME280;36998;51.974;20.150;2022-11-09T13:46:32;99960.81;;;15.81;55.35
49423;BME280;36998;51.974;20.150;2022-11-09T13:49:38;99964.34;;;15.75;55.51
49423;BME280;36998;51.974;20.150;2022-11-09T13:52:56;99977.34;;;15.79;55.24
49423;BME280;36998;51.974;20.150;2022-11-09T13:55:41;99988.69;;;15.83;55.32
49423;BME280;36998;51.974;20.150;2022-11-09T13:58:30;99991.59;;;15.81;55.29
49423;BME280;36998;51.974;20.150;2022-11-09T14:01:44;99990.13;;;15.79;55.64
49423;BME280;36998;51.974;20.150;2022-11-09T14:04:39;99990.50;;;15.69;55.47
49423;BME280;36998;51.974;20.150;2022-11-09T14:07:28;99993.59;;;15.66;55.90
49423;BME280;36998;51.974;20.150;2022-11-09T14:20:22;99975.66;;;15.72;56.18
49423;BME280;36998;51.974;20.150;2022-11-09T14:23:19;99982.25;;;15.56;56.17
49423;BME280;36998;51.974;20.150;2022-11-09T14:26:22;99985.97;;;15.41;56.61
49423;BME280;36998;51.974;20.150;2022-11-09T14:29:20;99989.47;;;15.29;56.82
49423;BME280;36998;51.974;20.150;2022-11-09T14:35:22;99982.41;;;15.06;57.36
49423;BME280;36998;51.974;20.150;2022-11-09T14:38:19;99984.66;;;14.96;57.60
49423;BME280;36998;51.974;20.150;2022-11-09T14:41:03;99992.78;;;14.89;57.88
49423;BME280;36998;51.974;20.150;2022-11-09T14:43:48;99990.00;;;14.83;58.01